• Join FlightAware (Why Join?)
  • Login
  • US Flag 
01:25AM EDT


 

Airport Tracker/Info


-or-


 

Live Flight TrackerFlight Track Log ✈ N500CD ✈ 27-Dec-2013 ✈ KCHS - KOPF

Flight Track Log - Related Links

Times and Time Zones

All times are in EST time to prevent confusion due to time zone crossing. See the N500CD flight status page for this flight to view local times or setup timezone preferences in your user account.

Time Position Orientation Groundspeed Altitude Reporting Facility
EST Latitude Longitude Course Direction KTS MPH feet Rate Location/Type
05:11PM 32.9033 -80.1736 255° West 180 207 6,700  Level Jacksonville Center
05:12PM 32.8642 -80.1969 207° Southwest 165 190 8,600 1,920 Climbing Jacksonville Center
05:13PM 32.8125 -80.2158 197° South 174 200 10,600 1,980 Climbing Jacksonville Center
05:14PM 32.7586 -80.2322 194° South 187 215 12,600 1,920 Climbing Jacksonville Center
05:15PM 32.7108 -80.2483 196° South 193 222 14,500 1,740 Climbing Jacksonville Center
05:16PM 32.6569 -80.2622 192° South 193 222 16,100 1,740 Climbing Jacksonville Center
05:17PM 32.6072 -80.2786 196° South 193 222 18,000 1,440 Climbing Jacksonville Center
05:18PM 32.5597 -80.2997 201° Southwest 188 216 19,000 1,200 Climbing Jacksonville Center
05:19PM 32.5186 -80.3328 214° Southwest 183 211 20,400 1,380 Climbing Jacksonville Center
05:20PM 32.4753 -80.3636 211° Southwest 183 211 21,800 1,200 Climbing Jacksonville Center
05:21PM 32.4319 -80.3944 211° Southwest 183 211 22,900 1,080 Climbing Jacksonville Center
05:22PM 32.3847 -80.4275 211° Southwest 190 219 24,000 1,020 Climbing Jacksonville Center
05:23PM 32.3333 -80.4658 212° Southwest 208 239 25,000 1,080 Climbing Jacksonville Center
05:24PM 32.2797 -80.5042 211° Southwest 218 251 26,200 1,200 Climbing Jacksonville Center
05:25PM 32.2111 -80.5206 191° South 232 267 27,400 1,200 Climbing Jacksonville Center
05:26PM 32.1403 -80.5347 190° South 243 280 28,700 1,260 Climbing Jacksonville Center
05:27PM 32.0739 -80.5489 190° South 243 280 30,000 1,200 Climbing Jacksonville Center
05:28PM 32.0156 -80.5600 189° South 238 274 31,100 1,080 Climbing Jacksonville Center
05:29PM 31.9428 -80.5742 189° South 238 274 32,200 1,020 Climbing Jacksonville Center
05:30PM 31.8783 -80.5903 192° South 238 274 33,200 960 Climbing Jacksonville Center
05:31PM 31.8222 -80.6017 190° South 238 274 34,200 1,140 Climbing Jacksonville Center
05:32PM 31.7536 -80.6156 190° South 238 274 35,500 900 Climbing Jacksonville Center
05:33PM 31.6994 -80.6267 190° South 231 266 36,000 240 Climbing Jacksonville Center
05:34PM 31.6267 -80.6431 191° South 236 272 36,000  Level Jacksonville Center
05:35PM 31.5622 -80.6567 190° South 257 296 36,000  Level Jacksonville Center
05:36PM 31.4853 -80.6756 192° South 267 307 36,000  Level Jacksonville Center
05:37PM 31.4083 -80.6897 189° South 279 321 36,000  Level Jacksonville Center
05:38PM 31.3292 -80.7061 190° South 286 329 36,000  Level Jacksonville Center
05:39PM 31.2461 -80.7203 188° South 298 343 36,000  Level Jacksonville Center
05:40PM 31.1669 -80.7367 190° South 298 343 36,000  Level Jacksonville Center
05:41PM 31.0858 -80.7553 191° South 298 343 36,000  Level Jacksonville Center
05:42PM 31.0047 -80.7717 190° South 293 337 36,000  Level Jacksonville Center
05:43PM 30.9236 -80.7881 190° South 293 337 36,000  Level Jacksonville Center
05:44PM 30.8297 -80.7928 182° South 293 337 36,000  Level Jacksonville Center
05:45PM 30.7394 -80.7753 171° South 312 359 36,000  Level Jacksonville Center
05:46PM 30.6475 -80.7581 171° South 324 373 36,000  Level Jacksonville Center
05:47PM 30.5594 -80.7431 172° South 330 380 36,000  Level Jacksonville Center
05:48PM 30.4694 -80.7258 171° South 335 386 36,000  Level Jacksonville Center
05:49PM 30.3794 -80.7136 173° South 335 386 36,000  Level Jacksonville Center
05:50PM 30.2936 -80.6986 171° South 328 377 36,000  Level Jacksonville Center
05:51PM 30.2078 -80.6836 171° South 328 377 36,000  Level Jacksonville Center
05:52PM 30.1156 -80.6689 172° South 328 377 36,000  Level Jacksonville Center
05:53PM 30.0297 -80.6542 172° South 328 377 36,000  Level Jacksonville Center
05:54PM 29.9397 -80.6394 172° South 328 377 36,000  Level Jacksonville Center
05:55PM 29.8497 -80.6247 172° South 328 377 36,000  Level Jacksonville Center
05:56PM 29.7575 -80.6125 173° South 334 384 36,000  Level Jacksonville Center
05:59PM 29.4919 -80.5653 171° South 345 397 36,000  Level Miami Center
06:00PM 29.4047 -80.5503 171° South 328 377 36,000  Level Miami Center
06:01PM 29.3153 -80.5378 173° South 322 371 36,000  Level Miami Center
06:02PM 29.2281 -80.5231 172° South 322 371 36,000  Level Miami Center
06:03PM 29.1408 -80.5083 172° South 322 371 36,000  Level Miami Center
06:04PM 29.0517 -80.4933 172° South 322 371 36,000  Level Miami Center
06:05PM 28.9644 -80.4786 172° South 322 371 36,000  Level Miami Center
06:06PM 28.8750 -80.4639 172° South 322 371 36,000  Level Miami Center
06:07PM 28.7858 -80.4492 172° South 322 371 36,000  Level Miami Center
06:08PM 28.6861 -80.4317 171° South 334 384 36,000  Level Miami Center
06:09PM 28.5994 -80.3911 158° South 334 384 36,000  Level Miami Center
06:10PM 28.5128 -80.3506 158° South 339 390 36,000  Level Miami Center
06:11PM 28.4364 -80.3153 158° South 339 390 36,000  Level Miami Center
06:12PM 28.3436 -80.2675 156° South 334 384 36,000  Level Miami Center
06:13PM 28.2611 -80.2272 157° South 334 384 36,000  Level Miami Center
06:14PM 28.1744 -80.1869 158° South 334 384 36,000  Level Miami Center
06:15PM 28.0981 -80.1519 158° South 334 384 36,000 -780 Level Miami Center
06:16PM 28.0133 -80.1094 156° South 334 384 34,500 -2,100 Descending Miami Center
06:17PM 27.9225 -80.0692 159° South 326 375 31,800 -2,220 Descending Miami Center
06:18PM 27.8353 -80.0408 164° South 326 375 30,100 -1,800 Descending Miami Center
06:19PM 27.7381 -80.0100 164° South 343 395 28,300 -1,860 Descending Miami Center
06:20PM 27.6364 -79.9769 164° South 364 419 26,400 -2,040 Descending Miami Center
06:21PM 27.5369 -79.9436 163° South 375 432 24,300 -2,100 Descending Miami Center
06:22PM 27.4353 -79.9106 164° South 375 432 22,300 -2,040 Descending Miami Center
06:23PM 27.3358 -79.8775 164° South 375 432 20,300 -2,040 Descending Miami Center
06:24PM 27.2361 -79.8422 163° South 375 432 18,300 -1,980 Descending Miami Center
06:25PM 27.1578 -79.7936 151° Southeast 360 414 16,400 -1,920 Descending Miami Center
06:26PM 27.0756 -79.7283 145° Southeast 355 409 14,500 -1,860 Descending Miami Center
06:27PM 26.9847 -79.6772 153° Southeast 344 396 12,700 -1,320 Descending Miami Center
06:28PM 26.9028 -79.7031 196° South 298 343 11,900 -840 Descending Miami Center
06:29PM 26.8208 -79.7292 196° South 296 341 11,100 -900 Descending Miami Center
06:30PM 26.7347 -79.7503 192° South 311 358 10,100 -1,080 Descending Miami Center
06:31PM 26.6656 -79.7694 194° South 305 351 9,000 -1,080 Descending Miami Center
06:32PM 26.5814 -79.7906 193° South 288 331 8,000 -720 Descending Miami Center
06:32PM 26.5436 -79.8036 197° South 283 326 8,000  Level Miami Center
06:33PM 26.5142 -79.8100 191° South 282 325 8,000  Level Miami Center
06:33PM 26.4764 -79.8228 197° South 279 321 8,000  Level Miami Center
06:34PM 26.4367 -79.8311 191° South 277 319 8,000  Level Miami Center
06:34PM 26.4133 -79.8469 211° Southwest 226 260 8,000  Level Miami Center
06:35PM 26.3858 -79.8600 203° Southwest 250 288 8,000 -240 Level Miami Center
06:35PM 26.3539 -79.8869 217° Southwest 253 291 7,800 -840 Descending Miami Center
06:36PM 26.3261 -79.9142 221° Southwest 251 289 7,200 -1,200 Descending Miami Center
06:36PM 26.3006 -79.9389 221° Southwest 245 282 6,600 -1,140 Descending Miami Center
06:37PM 26.2814 -79.9569 220° Southwest 244 281 6,100 -600 Descending Miami Center
06:37PM 26.2494 -79.9864 220° Southwest 229 264 6,000 -120 Descending Miami Center
06:38PM 26.2325 -80.0044 224° Southwest 237 273 6,000  Level Miami Center
06:38PM 26.2025 -80.0336 221° Southwest 237 273 6,000  Level Miami Center
06:39PM 26.1833 -80.0517 220° Southwest 237 273 6,000  Level Miami Center
06:39PM 26.1656 -80.0997 248° West 245 282 6,000 -240 Level Miami Center
06:40PM 26.1589 -80.1228 252° West 237 273 5,800 -1,200 Descending Miami Center
06:40PM 26.1369 -80.1661 241° Southwest 236 272 4,800 -1,500 Descending Miami Center
06:41PM 26.1242 -80.1819 228° Southwest 237 273 4,300 -780 Descending Miami Center
06:41PM 26.0897 -80.2203 225° Southwest 243 280 4,000 -300 Descending Miami Center
06:42PM 26.0769 -80.2339 224° Southwest 237 273 4,000  Level Miami Center
06:42PM 26.0406 -80.2722 223° Southwest 230 265 4,000 -420 Level Miami Center
06:43PM 25.9997 -80.3219 228° Southwest 230 265 3,400 -540 Descending Miami Center
06:45PM 25.9753 -80.3858 247° West 215 247 3,000 -240 Descending Miami Center
06:46PM 25.9653 -80.4478 260° West 215 247 3,000 -600 Level Miami Center
06:47PM 25.9553 -80.5192 261° West 221 254 1,800 -720 Descending Miami Center
06:48PM 25.9117 -80.4994 158° South 190 219 1,600 -120 Descending Miami Center
06:49PM 25.9025 -80.4531 102° East 150 173 1,600  Level Miami Center
06:50PM 25.9058 -80.3975 86° East 157 181 1,600 -240 Level Miami Center
06:51PM 25.9069 -80.3608 88° East 105 121 1,200 -480 Descending Miami Center
06:52PM 25.9097 -80.3283 85° East 108 124 700 -540 Descending Miami Center